Huvudsida
METAR-TAF:

METAR-TAF

Flygplatser :

Herat, Afghanistan

latitud: 34-13N, longitud: 062-13E, höjd: 964 m

Aktuellt väderrapport

Denna rapport gjordes för 39 minuter sedan, klockan 13:55 UTC
Vind 6 kt från väst
Temperatur 11°C
Fuktighet 35%
Tryck 1022 hPa
Sikt 10 km eller mer
Inga moln under 1 500 m eller inga cumulonimbus

METAR: OAHR 121355Z 27006KT CAVOK 11/M04 Q1022 RMK A3019 BLU

Tid: 19:04 (14:34 UTC)

Väderprognos

Denna rapport gjordes för 3 timmar och 34 minuter sedan, klockan 11:00 UTC
Prognos gäller från 12 kl. 12 UTC till 13 kl. 12 UTC
Vind 6 kt från nordväst
Sikt 10 km eller mer
Inga moln under 1 500 m eller inga cumulonimbus
Blir
från 12 kl. 13 UTC till 12 kl. 15 UTC
Vind 10 kt från nord/nordost
Få moln på en höjd av 9000 ft
Blir
från 12 kl. 16 UTC till 12 kl. 18 UTC
Vind 3 kt varierande vindriktning

TAF: OAHR 121100Z 1212/1312 32006KT CAVOK BECMG 1213/1215 02010KT FEW090 BECMG 1216/1218 VRB03KT

Aktuella väderrapporter och prognoser från 4000 flygplatser (METAR- och TAF-rapporter).

De tillgängliga stationerna syns som gula och röda prickar på kartan.

För musen över prickarna för att se namnen på stationerna.

Klicka sedan för att få väderrapporter och prognoser.

För att ändra kartan: Klicka på de gröna knapparna med ett svart kors på för att zooma in; den gröna knappen med ett streck på för att zooma ut; eller på de gröna pilarna för angränsande kartor.


METAR-TAF: